Time;durP1;ratioP1;P1;durP2;ratioP2;P2;SDS_P1;SDS_P2;PMS_P1;PMS_P2;Temp;Humidity;BMP_temperature;BMP_pressure;BME280_temperature;BME280_humidity;BME280_pressure;Samples;Min_cycle;Max_cycle;Signal;HPM_P1;HPM_P2
2024/01/10 00:00:31;;;;;;;18.90;9.98;;;;;;;-0.63;85.44;101024.25;3119646;28;20056;-67
2024/01/10 00:02:03;;;;;;;20.35;10.07;;;;;;;-0.58;85.26;101020.09;3120022;28;20052;-67
2024/01/10 00:03:34;;;;;;;22.15;10.20;;;;;;;-0.52;85.44;101032.16;3119989;28;20060;-68
2024/01/10 00:05:07;;;;;;;21.98;11.00;;;;;;;-0.50;85.12;101043.31;3119815;28;20139;-67
2024/01/10 00:06:37;;;;;;;20.33;10.30;;;;;;;-0.49;85.14;101037.34;3120024;28;20049;-67
2024/01/10 00:08:09;;;;;;;20.27;10.65;;;;;;;-0.47;85.18;101041.66;3119949;28;20053;-68
2024/01/10 00:09:40;;;;;;;26.02;10.48;;;;;;;-0.47;85.24;101044.22;3119487;28;20060;-67
2024/01/10 00:11:12;;;;;;;21.70;10.32;;;;;;;-0.45;85.09;101046.78;3117415;28;20444;-68
2024/01/10 00:12:44;;;;;;;21.90;10.70;;;;;;;-0.47;85.00;101039.09;3119820;28;20081;-66
2024/01/10 00:14:17;;;;;;;23.13;9.82;;;;;;;-0.40;85.10;101047.75;3119523;28;20515;-67
2024/01/10 00:15:48;;;;;;;29.45;11.90;;;;;;;-1.08;84.99;100942.38;3119698;28;20053;-67
2024/01/10 00:17:20;;;;;;;23.02;11.18;;;;;;;-0.38;84.94;101045.25;3119564;28;20124;-67
2024/01/10 00:18:51;;;;;;;26.77;11.00;;;;;;;-0.39;85.02;101044.34;3119682;28;20478;-67
2024/01/10 00:20:22;;;;;;;25.42;11.40;;;;;;;-0.39;85.16;101041.78;3119711;28;20061;-67
2024/01/10 00:21:53;;;;;;;22.10;10.20;;;;;;;-0.32;84.91;101051.34;3119548;28;20149;-68
2024/01/10 00:23:25;;;;;;;24.40;10.75;;;;;;;-0.30;84.89;101048.78;3119551;28;20744;-67
2024/01/10 00:24:56;;;;;;;25.30;10.32;;;;;;;-0.30;84.95;101052.19;3119667;28;20064;-67
2024/01/10 00:26:28;;;;;;;20.83;11.10;;;;;;;-0.28;84.81;101055.66;3119460;28;20057;-68
2024/01/10 00:27:58;;;;;;;27.92;12.25;;;;;;;-0.26;84.78;101061.69;3119724;28;20053;-67
2024/01/10 00:29:32;;;;;;;26.15;11.48;;;;;;;-0.30;84.65;101049.63;3119367;28;20438;-67
2024/01/10 00:31:03;;;;;;;26.17;10.95;;;;;;;-0.24;84.80;101054.91;3119771;28;20049;-68
2024/01/10 00:32:34;;;;;;;22.70;11.07;;;;;;;-0.61;84.70;100994.47;3119534;28;20091;-67
2024/01/10 00:34:05;;;;;;;25.52;11.10;;;;;;;-0.21;84.58;101058.34;3119519;28;20057;-68
2024/01/10 00:35:37;;;;;;;21.73;10.05;;;;;;;-0.24;84.76;101059.13;3119225;28;20053;-68
2024/01/10 00:37:08;;;;;;;20.50;9.45;;;;;;;-0.24;84.69;101064.25;3119441;28;20769;-68
2024/01/10 00:38:39;;;;;;;26.27;11.45;;;;;;;-0.25;84.58;101060.84;3119664;28;20053;-68
2024/01/10 00:40:11;;;;;;;21.98;10.85;;;;;;;-0.26;84.68;101056.56;3119354;28;20078;-68
2024/01/10 00:41:42;;;;;;;22.02;10.75;;;;;;;-0.25;84.79;101060.84;3119436;28;20124;-68
2024/01/10 00:43:13;;;;;;;22.25;10.45;;;;;;;-0.25;84.83;101065.97;3119672;28;20525;-68
2024/01/10 00:44:46;;;;;;;20.65;10.23;;;;;;;-0.22;84.65;101066.84;3119065;28;20064;-68
2024/01/10 00:46:17;;;;;;;26.63;11.45;;;;;;;-0.29;84.67;101061.63;3119652;28;20045;-68
2024/01/10 00:47:49;;;;;;;21.67;10.63;;;;;;;-0.25;84.74;101065.97;3119665;28;20052;-68
2024/01/10 00:49:20;;;;;;;21.87;10.67;;;;;;;-0.22;84.70;101074.53;3116677;28;20507;-68
2024/01/10 00:50:52;;;;;;;22.42;10.38;;;;;;;-0.22;84.70;101070.28;3119270;28;20319;-68
2024/01/10 00:52:23;;;;;;;23.00;11.48;;;;;;;-0.21;84.59;101069.44;3119207;28;20495;-67
2024/01/10 00:53:55;;;;;;;26.35;12.10;;;;;;;-0.20;84.68;101070.31;3119557;28;20057;-67
2024/01/10 00:55:25;;;;;;;25.63;10.90;;;;;;;-0.29;84.66;101059.06;3118899;28;20835;-67
2024/01/10 00:56:57;;;;;;;20.75;11.02;;;;;;;-0.19;84.73;101072.91;3119491;28;20041;-67
2024/01/10 00:58:28;;;;;;;25.25;11.20;;;;;;;-0.25;84.67;101058.28;3118945;28;20125;-67
2024/01/10 01:00:03;;;;;;;23.08;11.02;;;;;;;-0.79;84.47;100964.28;3118389;28;20514;-67
2024/01/10 01:01:34;;;;;;;26.33;11.63;;;;;;;-0.19;84.50;101067.78;3119424;28;20046;-67
2024/01/10 01:03:07;;;;;;;22.60;11.45;;;;;;;-0.24;84.63;101060.03;3119036;28;20449;-66
2024/01/10 01:04:38;;;;;;;21.15;10.55;;;;;;;-0.18;84.61;101073.75;3119348;28;20049;-67
2024/01/10 01:06:09;;;;;;;24.13;12.05;;;;;;;-0.16;84.73;101077.22;3119094;28;20427;-67
2024/01/10 01:07:40;;;;;;;24.30;11.60;;;;;;;-0.16;84.44;101072.09;3119029;28;20049;-67
2024/01/10 01:09:13;;;;;;;25.85;12.70;;;;;;;-0.16;84.43;101065.28;3119277;28;20141;-67
2024/01/10 01:10:44;;;;;;;23.88;12.57;;;;;;;-0.20;84.47;101060.94;3119324;28;20530;-67
2024/01/10 01:12:16;;;;;;;25.42;12.68;;;;;;;-0.15;84.37;101063.56;3119130;28;20141;-67
2024/01/10 01:13:46;;;;;;;27.27;12.85;;;;;;;-0.16;84.27;101059.28;3118850;28;20123;-67
2024/01/10 01:15:20;;;;;;;24.73;13.20;;;;;;;-0.20;84.13;101060.94;3116173;28;20045;-67
2024/01/10 01:16:50;;;;;;;24.23;13.18;;;;;;;-0.18;84.32;101069.50;3119057;28;20451;-67
2024/01/10 01:18:22;;;;;;;24.30;12.52;;;;;;;-0.17;84.34;101067.81;3119191;28;20053;-67
2024/01/10 01:19:53;;;;;;;26.02;13.27;;;;;;;-0.17;84.47;101070.38;3119108;28;20512;-67
2024/01/10 01:21:25;;;;;;;24.00;12.57;;;;;;;-0.15;84.42;101072.09;3118898;28;20056;-67
2024/01/10 01:22:55;;;;;;;27.25;13.35;;;;;;;-0.16;84.47;101070.38;3119495;28;20054;-67
2024/01/10 01:24:27;;;;;;;25.83;12.35;;;;;;;-0.19;84.47;101064.34;3118842;28;20068;-67
2024/01/10 01:25:59;;;;;;;26.95;12.70;;;;;;;-0.22;84.55;101066.84;3118818;28;20049;-66
2024/01/10 01:27:31;;;;;;;26.27;13.43;;;;;;;-0.31;84.76;101060.72;3119161;28;20536;-68
2024/01/10 01:29:01;;;;;;;25.50;12.80;;;;;;;-0.22;84.71;101069.41;3119106;28;20045;-67
2024/01/10 01:30:35;;;;;;;24.25;12.68;;;;;;;-0.26;84.36;101066.81;3118811;28;20053;-67
2024/01/10 01:32:05;;;;;;;;;;;;;;;-0.34;84.82;101073.47;3122339;28;20049;-67
2024/01/10 01:33:38;;;;;;;27.25;12.45;;;;;;;-0.31;84.92;101070.97;3119032;28;19936;-67
2024/01/10 01:35:10;;;;;;;27.88;12.00;;;;;;;-0.28;84.85;101068.47;3118959;28;20045;-67
2024/01/10 01:36:41;;;;;;;30.75;13.60;;;;;;;-0.25;84.70;101065.97;3118958;28;20057;-67
2024/01/10 01:38:13;;;;;;;29.52;12.90;;;;;;;-0.22;84.53;101065.16;3118542;28;20479;-66
2024/01/10 01:39:44;;;;;;;26.27;13.38;;;;;;;-0.20;84.50;101067.75;3118626;28;20058;-67
2024/01/10 01:41:15;;;;;;;28.98;12.65;;;;;;;-0.18;84.44;101069.50;3119002;28;20124;-67
2024/01/10 01:42:46;;;;;;;29.58;14.35;;;;;;;-0.16;84.39;101070.38;3118988;28;20573;-67
2024/01/10 01:44:18;;;;;;;25.98;13.43;;;;;;;-0.30;84.27;101033.44;3116747;28;20060;-67
2024/01/10 01:45:53;;;;;;;28.05;13.77;;;;;;;-0.14;84.16;101070.44;3118592;28;20100;-67
2024/01/10 01:47:27;;;;;;;25.70;13.55;;;;;;;-0.17;84.17;101065.25;3112060;28;20065;-67
2024/01/10 01:48:58;;;;;;;26.15;12.82;;;;;;;-0.14;84.17;101070.44;3118855;28;20045;-67
2024/01/10 01:50:30;;;;;;;27.92;14.18;;;;;;;-0.18;84.19;101063.50;3118605;28;20053;-67
2024/01/10 01:52:02;;;;;;;27.55;13.77;;;;;;;-0.15;84.04;101058.44;3119140;28;20053;-68
2024/01/10 01:53:35;;;;;;;31.60;14.48;;;;;;;-0.12;84.09;101063.63;3118964;28;20053;-67
2024/01/10 01:55:07;;;;;;;30.52;15.27;;;;;;;-0.06;84.06;101067.19;3118913;28;20053;-67
2024/01/10 01:56:40;;;;;;;30.85;14.80;;;;;;;-0.06;83.92;101059.50;3112487;28;20089;-67
2024/01/10 01:58:12;;;;;;;33.05;14.40;;;;;;;-0.05;84.04;101056.09;3118802;28;20456;-66
2024/01/10 01:59:44;;;;;;;28.88;14.50;;;;;;;-0.16;83.81;101032.00;3118552;28;20076;-67
2024/01/10 02:01:17;;;;;;;32.50;15.45;;;;;;;-0.01;83.72;101057.00;3118931;28;20045;-68
2024/01/10 02:02:49;;;;;;;36.20;14.82;;;;;;;-0.05;83.78;101043.28;3118946;28;20486;-68
2024/01/10 02:04:20;;;;;;;28.63;13.43;;;;;;;-0.04;83.65;101051.84;3118852;28;20045;-68
2024/01/10 02:05:52;;;;;;;32.17;14.10;;;;;;;-0.02;83.50;101050.19;3118871;28;20045;-66
2024/01/10 02:07:23;;;;;;;35.55;14.05;;;;;;;-0.02;83.53;101052.72;3118941;28;20063;-67
2024/01/10 02:08:54;;;;;;;29.52;15.05;;;;;;;-0.07;83.60;101041.53;3119017;28;20056;-66
2024/01/10 02:10:26;;;;;;;30.30;13.85;;;;;;;-0.07;83.49;101041.53;3119172;28;20081;-66
2024/01/10 02:11:58;;;;;;;33.78;14.73;;;;;;;0.00;83.39;101048.50;3112774;28;20056;-67
2024/01/10 02:13:30;;;;;;;31.77;14.55;;;;;;;0.03;83.43;101047.69;3121267;28;20156;-66
2024/01/10 02:15:03;;;;;;;33.30;14.93;;;;;;;0.04;83.25;101044.31;3120073;28;20072;-67
2024/01/10 02:16:35;;;;;;;35.28;15.82;;;;;;;0.06;83.21;101048.63;3120494;28;20056;-67
2024/01/10 02:18:07;;;;;;;31.23;14.38;;;;;;;0.05;83.13;101043.44;3120850;28;20136;-68
2024/01/10 02:19:38;;;;;;;30.25;13.85;;;;;;;0.02;83.06;101031.44;3121062;28;20049;-68
2024/01/10 02:21:09;;;;;;;27.65;13.10;;;;;;;0.07;83.00;101044.34;3121360;28;20421;-68
2024/01/10 02:22:40;;;;;;;25.70;12.75;;;;;;;-0.01;82.72;101033.97;3121013;28;20057;-67
2024/01/10 02:24:12;;;;;;;27.65;12.90;;;;;;;-0.05;83.06;101029.63;3120912;28;20459;-67
2024/01/10 02:25:44;;;;;;;21.35;11.40;;;;;;;0.04;82.75;101045.16;3121136;28;20045;-67
2024/01/10 02:27:16;;;;;;;24.25;12.40;;;;;;;-0.02;82.88;101035.66;3122009;28;20049;-67
2024/01/10 02:28:47;;;;;;;29.58;13.43;;;;;;;0.04;82.72;101049.44;3130385;28;20052;-67
2024/01/10 02:30:19;;;;;;;25.52;11.80;;;;;;;0.06;82.71;101040.03;3120847;28;20053;-68
2024/01/10 02:31:50;;;;;;;23.77;12.50;;;;;;;0.01;82.58;101034.88;3120911;28;20054;-68
2024/01/10 02:33:22;;;;;;;26.08;11.90;;;;;;;0.04;82.29;101041.75;3120714;28;20056;-68
2024/01/10 02:34:52;;;;;;;20.83;11.32;;;;;;;-0.07;82.20;101026.19;3120531;28;20498;-66
2024/01/10 02:36:24;;;;;;;24.42;12.30;;;;;;;-0.04;82.26;101037.31;3120987;28;20049;-68
2024/01/10 02:37:55;;;;;;;23.42;12.10;;;;;;;-0.04;82.27;101037.31;3120092;28;20042;-66
2024/01/10 02:39:27;;;;;;;24.33;12.25;;;;;;;-0.11;82.17;101024.41;3120526;28;20057;-67
2024/01/10 02:41:00;;;;;;;22.05;11.68;;;;;;;-0.04;82.07;101036.47;3120654;28;20065;-67
2024/01/10 02:42:33;;;;;;;26.17;12.35;;;;;;;-0.85;82.08;100910.44;3120426;28;20061;-67
2024/01/10 02:44:05;;;;;;;23.73;11.63;;;;;;;-0.07;82.04;101036.41;3120787;28;20526;-67
2024/01/10 02:45:35;;;;;;;24.55;11.13;;;;;;;-0.10;81.92;101036.38;3120624;28;20049;-66
2024/01/10 02:47:08;;;;;;;20.98;10.70;;;;;;;-0.11;81.58;101034.66;3121087;28;20173;-67
2024/01/10 02:48:39;;;;;;;23.00;11.05;;;;;;;-0.20;81.69;101032.78;3121035;28;20045;-68
2024/01/10 02:50:11;;;;;;;23.13;11.18;;;;;;;-0.20;81.55;101030.22;3120699;28;20203;-68
2024/01/10 02:51:42;;;;;;;22.00;11.20;;;;;;;-0.26;81.68;101025.84;3120805;28;20053;-68
2024/01/10 02:53:13;;;;;;;22.75;11.75;;;;;;;-0.22;81.50;101033.59;3117929;28;20046;-67
2024/01/10 02:54:44;;;;;;;22.67;10.90;;;;;;;-0.20;81.60;101034.47;3121093;28;20057;-67
2024/01/10 02:56:17;;;;;;;23.13;11.27;;;;;;;-0.17;81.54;101040.50;3120786;28;20045;-67
2024/01/10 02:57:48;;;;;;;20.52;10.35;;;;;;;-0.17;81.22;101034.53;3120802;28;20532;-67
2024/01/10 02:59:20;;;;;;;23.77;10.65;;;;;;;-0.17;81.21;101034.53;3120568;28;20057;-68
2024/01/10 03:00:51;;;;;;;24.70;10.00;;;;;;;-0.15;81.19;101038.81;3121016;28;20077;-68
2024/01/10 03:02:23;;;;;;;20.25;10.55;;;;;;;-0.14;81.03;101038.00;3120643;28;20046;-67
2024/01/10 03:03:54;;;;;;;20.77;9.93;;;;;;;-0.28;81.12;101018.97;3120705;28;20057;-67
2024/01/10 03:05:26;;;;;;;20.25;10.38;;;;;;;-0.13;81.05;101037.16;3120573;28;20307;-68
2024/01/10 03:06:56;;;;;;;23.02;10.82;;;;;;;-0.11;80.78;101037.22;3120937;28;20104;-66
2024/01/10 03:08:28;;;;;;;18.17;9.52;;;;;;;-0.09;80.77;101043.19;3120586;28;20549;-67
2024/01/10 03:09:59;;;;;;;23.35;10.45;;;;;;;-0.09;80.59;101035.50;3120513;28;20065;-67
2024/01/10 03:11:34;;;;;;;19.30;9.73;;;;;;;-0.07;80.54;101036.41;3120594;28;20079;-67
2024/01/10 03:13:05;;;;;;;24.17;10.10;;;;;;;-0.13;80.41;101018.38;3120581;28;20049;-67
2024/01/10 03:14:37;;;;;;;21.70;10.18;;;;;;;-0.05;80.41;101029.63;3120098;28;20049;-67
2024/01/10 03:16:09;;;;;;;21.85;10.48;;;;;;;-0.04;80.27;101029.66;3120151;28;20061;-67
2024/01/10 03:17:39;;;;;;;21.40;10.45;;;;;;;-0.09;80.21;101018.47;3117552;28;20053;-68
2024/01/10 03:19:11;;;;;;;22.00;10.13;;;;;;;-0.01;79.99;101029.69;3120229;28;20447;-67
2024/01/10 03:20:42;;;;;;;21.10;10.85;;;;;;;0.00;80.06;101028.03;3120197;28;20467;-67
2024/01/10 03:22:14;;;;;;;20.48;9.43;;;;;;;-0.36;79.73;100962.50;3119626;28;20056;-67
2024/01/10 03:23:45;;;;;;;28.77;13.25;;;;;;;-0.07;79.74;101010.81;3120035;28;20052;-67
2024/01/10 03:25:16;;;;;;;21.70;11.32;;;;;;;0.04;79.67;101023.81;3120110;28;20050;-67
2024/01/10 03:26:49;;;;;;;21.02;9.73;;;;;;;0.04;79.34;101027.22;3120231;28;20054;-67
2024/01/10 03:28:20;;;;;;;23.38;10.82;;;;;;;-0.03;79.32;101018.59;3120141;28;20057;-67
2024/01/10 03:29:51;;;;;;;18.02;9.18;;;;;;;-0.02;79.39;101024.56;3119757;28;20053;-66
2024/01/10 03:31:23;;;;;;;20.38;9.95;;;;;;;0.00;79.31;101028.03;3120331;28;20663;-66
2024/01/10 03:32:54;;;;;;;22.63;9.15;;;;;;;-0.02;79.23;101025.41;3108224;28;20053;-66
2024/01/10 03:34:25;;;;;;;21.00;9.82;;;;;;;0.00;79.04;101035.72;3119197;28;20053;-67
2024/01/10 03:35:56;;;;;;;17.75;8.77;;;;;;;-0.06;78.97;101022.75;3120068;28;20049;-66
2024/01/10 03:37:28;;;;;;;16.75;8.32;;;;;;;-0.02;78.88;101034.81;3120138;28;20061;-68
2024/01/10 03:38:59;;;;;;;23.15;9.73;;;;;;;-0.06;78.84;101023.66;3119760;28;20060;-67
2024/01/10 03:40:30;;;;;;;19.77;10.13;;;;;;;-0.04;78.78;101027.09;3120250;28;20100;-67
2024/01/10 03:42:03;;;;;;;22.02;8.70;;;;;;;0.03;78.56;101038.31;3119785;28;20068;-67
2024/01/10 03:43:35;;;;;;;22.17;9.32;;;;;;;0.01;78.34;101034.88;3120065;28;21079;-67
2024/01/10 03:45:06;;;;;;;21.27;9.55;;;;;;;0.04;78.42;101036.63;3117224;28;20065;-66
2024/01/10 03:46:38;;;;;;;18.75;9.48;;;;;;;0.04;78.40;101029.78;3115278;28;20053;-67
2024/01/10 03:48:08;;;;;;;21.35;9.95;;;;;;;0.04;78.33;101032.34;3120011;28;20517;-67
2024/01/10 03:49:40;;;;;;;24.65;10.25;;;;;;;0.00;78.41;101022.91;3119952;28;20041;-67
2024/01/10 03:51:11;;;;;;;20.05;9.65;;;;;;;-0.06;78.23;101015.09;3120110;28;20049;-67
2024/01/10 03:52:43;;;;;;;20.15;10.13;;;;;;;-0.10;78.22;101011.63;3120106;28;20064;-67
2024/01/10 03:54:14;;;;;;;22.70;10.38;;;;;;;-0.09;78.12;101007.34;3119753;28;20096;-67
2024/01/10 03:55:45;;;;;;;20.35;10.10;;;;;;;0.05;78.17;101018.69;3119811;28;20053;-67
2024/01/10 03:57:19;;;;;;;20.10;9.52;;;;;;;0.08;78.05;101030.69;3119817;28;20522;-67
2024/01/10 03:58:49;;;;;;;;;;;;;;;-0.05;78.16;101040.72;3109418;28;20046;-67
2024/01/10 04:00:21;;;;;;;24.67;9.88;;;;;;;-0.01;78.40;101034.81;3119903;28;19931;-67
2024/01/10 04:01:52;;;;;;;22.17;10.70;;;;;;;0.02;78.15;101036.56;3110068;28;20081;-67
2024/01/10 04:03:24;;;;;;;27.90;11.10;;;;;;;-0.01;78.11;101032.25;3118129;28;20045;-67
2024/01/10 04:04:56;;;;;;;24.17;10.95;;;;;;;-0.05;78.05;101021.94;3119928;28;20065;-67
2024/01/10 04:06:27;;;;;;;21.33;10.40;;;;;;;-0.04;78.21;101021.09;3119478;28;20056;-67
2024/01/10 04:07:59;;;;;;;22.25;10.55;;;;;;;0.07;78.04;101042.66;3119822;28;20372;-67
2024/01/10 04:09:30;;;;;;;25.17;12.13;;;;;;;-0.09;78.18;101012.47;3117236;28;20064;-67
2024/01/10 04:11:03;;;;;;;22.48;10.63;;;;;;;0.10;78.02;101049.53;3118413;28;21039;-67
2024/01/10 04:12:35;;;;;;;19.25;10.32;;;;;;;0.01;78.02;101029.75;3118405;28;20050;-66
2024/01/10 04:14:07;;;;;;;20.88;11.18;;;;;;;0.06;77.98;101038.38;3118106;28;20156;-67
2024/01/10 04:15:38;;;;;;;24.58;11.07;;;;;;;0.09;78.14;101042.66;3119912;28;20049;-67
2024/01/10 04:17:09;;;;;;;23.58;11.55;;;;;;;0.14;78.08;101038.50;3119831;28;20057;-67
2024/01/10 04:18:40;;;;;;;21.80;11.57;;;;;;;-0.03;78.05;101013.47;3119684;28;20076;-67
2024/01/10 04:20:12;;;;;;;23.45;11.80;;;;;;;0.15;77.83;101043.66;3119802;28;20379;-67
2024/01/10 04:21:43;;;;;;;21.90;11.50;;;;;;;0.16;77.97;101047.06;3119587;28;20064;-68
2024/01/10 04:23:15;;;;;;;23.67;11.80;;;;;;;0.17;77.82;101048.78;3119765;28;20053;-67
2024/01/10 04:24:47;;;;;;;22.83;11.70;;;;;;;0.14;77.78;101053.84;3119651;28;20407;-66
2024/01/10 04:26:18;;;;;;;26.08;13.15;;;;;;;0.16;77.81;101044.50;3117958;28;20447;-67
2024/01/10 04:27:51;;;;;;;22.00;11.15;;;;;;;0.09;77.84;101042.66;3119438;28;20049;-67
2024/01/10 04:29:21;;;;;;;;;;;;;;;0.04;78.10;101054.53;3119906;28;20045;-66
2024/01/10 04:30:53;;;;;;;24.45;11.77;;;;;;;0.06;78.05;101045.16;3119687;28;19921;-67
2024/01/10 04:32:24;;;;;;;27.50;11.45;;;;;;;0.08;77.98;101054.59;3120027;28;20053;-65
2024/01/10 04:33:56;;;;;;;29.48;12.10;;;;;;;0.05;78.10;101041.75;3123068;28;20096;-66
2024/01/10 04:35:27;;;;;;;26.40;12.00;;;;;;;0.10;77.83;101054.66;3118962;28;20533;-66
2024/01/10 04:36:58;;;;;;;24.02;11.43;;;;;;;0.07;77.93;101047.78;3119772;28;20065;-67
2024/01/10 04:38:30;;;;;;;24.75;12.00;;;;;;;-0.25;77.77;100991.72;3120022;28;20065;-68
2024/01/10 04:40:01;;;;;;;27.02;11.80;;;;;;;0.12;78.04;101055.53;3119379;28;20056;-68
2024/01/10 04:41:33;;;;;;;27.20;12.95;;;;;;;0.11;77.88;101052.09;3119815;28;20478;-68
2024/01/10 04:43:05;;;;;;;23.90;11.82;;;;;;;0.15;77.67;101063.28;3119637;28;20053;-68
2024/01/10 04:44:37;;;;;;;25.90;11.73;;;;;;;-0.66;77.87;100926.13;3119220;28;20049;-68
2024/01/10 04:46:10;;;;;;;25.05;11.07;;;;;;;0.13;77.72;101064.94;3119373;28;20053;-68
2024/01/10 04:47:41;;;;;;;21.63;10.98;;;;;;;0.12;77.71;101065.75;3119341;28;20048;-66
2024/01/10 04:49:13;;;;;;;22.90;11.00;;;;;;;0.10;77.63;101067.47;3119654;28;20065;-69
2024/01/10 04:50:43;;;;;;;23.17;11.45;;;;;;;0.09;77.61;101066.59;3119506;28;20045;-67
2024/01/10 04:52:15;;;;;;;21.77;11.75;;;;;;;0.07;77.54;101067.41;3119577;28;20056;-68
2024/01/10 04:53:46;;;;;;;24.80;11.75;;;;;;;0.08;77.69;101071.69;3119555;28;20049;-69
2024/01/10 04:55:18;;;;;;;24.25;10.88;;;;;;;0.08;77.48;101077.66;3119408;28;20049;-68
2024/01/10 04:56:49;;;;;;;24.13;11.55;;;;;;;0.09;77.58;101079.41;3119454;28;20506;-67
2024/01/10 04:58:22;;;;;;;26.02;12.13;;;;;;;0.04;77.79;101070.78;3119361;28;20048;-68
2024/01/10 04:59:53;;;;;;;;;;;;;;;-0.02;77.84;101078.34;3119480;28;20052;-66
2024/01/10 05:01:25;;;;;;;22.85;10.35;;;;;;;0.00;77.98;101074.13;3117385;28;19932;-66
2024/01/10 05:02:56;;;;;;;27.42;11.60;;;;;;;0.04;77.73;101080.16;3119550;28;20090;-67
2024/01/10 05:04:27;;;;;;;26.73;13.52;;;;;;;0.06;77.68;101083.59;3119353;28;20693;-67
2024/01/10 05:05:58;;;;;;;30.92;13.95;;;;;;;0.04;77.65;101083.56;3119468;28;20068;-67
2024/01/10 05:07:30;;;;;;;30.40;14.07;;;;;;;0.05;77.72;101082.72;3119239;28;20053;-66
2024/01/10 05:09:01;;;;;;;28.55;12.15;;;;;;;0.06;77.52;101083.59;3119227;28;20041;-67
2024/01/10 05:10:33;;;;;;;25.70;11.85;;;;;;;0.06;77.47;101086.16;3119256;28;20056;-67
2024/01/10 05:12:04;;;;;;;25.50;12.10;;;;;;;0.07;77.63;101091.31;3113505;28;20053;-66
2024/01/10 05:13:39;;;;;;;25.58;12.07;;;;;;;0.08;77.44;101087.03;3119343;28;20049;-66
2024/01/10 05:15:09;;;;;;;24.75;11.95;;;;;;;0.07;77.45;101080.22;3117523;28;20103;-66
2024/01/10 05:16:41;;;;;;;26.90;12.88;;;;;;;0.01;77.40;101077.53;3116936;28;20098;-65
2024/01/10 05:18:12;;;;;;;28.45;12.27;;;;;;;0.02;77.49;101082.66;3119096;28;20057;-66
2024/01/10 05:19:45;;;;;;;25.98;12.07;;;;;;;0.07;77.56;101091.31;3118780;28;20699;-65
2024/01/10 05:21:16;;;;;;;24.27;11.50;;;;;;;0.06;77.67;101089.59;3119293;28;20046;-64
2024/01/10 05:22:47;;;;;;;24.15;11.15;;;;;;;0.08;77.51;101087.91;3119290;28;20135;-65
2024/01/10 05:24:19;;;;;;;26.92;11.10;;;;;;;0.05;77.36;101087.84;3119102;28;20140;-66
2024/01/10 05:25:51;;;;;;;22.48;10.77;;;;;;;0.11;77.58;101093.09;3119067;28;20052;-65
2024/01/10 05:27:21;;;;;;;22.13;11.55;;;;;;;0.11;77.64;101098.22;3119011;28;20049;-66
2024/01/10 05:28:55;;;;;;;23.65;11.23;;;;;;;0.06;77.42;101084.47;3118050;28;20501;-64
2024/01/10 05:30:25;;;;;;;30.80;11.05;;;;;;;0.05;77.46;101084.44;3117982;28;20498;-66
2024/01/10 05:31:57;;;;;;;24.58;10.85;;;;;;;0.13;77.34;101099.09;3118909;28;20049;-65
2024/01/10 05:33:28;;;;;;;24.58;10.65;;;;;;;0.11;77.34;101098.22;3119503;28;20064;-69
2024/01/10 05:35:00;;;;;;;23.88;11.35;;;;;;;0.14;77.20;101103.38;3121545;28;20081;-65
2024/01/10 05:36:33;;;;;;;27.92;12.15;;;;;;;0.04;77.31;101088.69;3118814;28;20049;-65
2024/01/10 05:38:04;;;;;;;29.05;12.15;;;;;;;0.13;77.32;101101.66;3117362;28;20057;-66
2024/01/10 05:39:36;;;;;;;33.80;13.43;;;;;;;0.16;77.31;101106.84;3113301;28;20049;-66
2024/01/10 05:41:07;;;;;;;29.00;12.23;;;;;;;0.16;77.02;101106.00;3118827;28;20053;-68
2024/01/10 05:42:39;;;;;;;26.98;12.68;;;;;;;0.16;77.08;101108.56;3119193;28;20080;-65
2024/01/10 05:44:11;;;;;;;28.05;12.50;;;;;;;0.15;77.08;101101.72;3118755;28;20132;-68
2024/01/10 05:45:43;;;;;;;27.27;12.02;;;;;;;-0.11;77.00;101076.47;3117359;28;20057;-68
2024/01/10 05:47:13;;;;;;;27.45;12.15;;;;;;;0.08;76.98;101112.66;3112360;28;20104;-69
2024/01/10 05:48:46;;;;;;;23.90;11.38;;;;;;;-0.03;76.85;101097.97;3114461;28;20138;-64
2024/01/10 05:50:17;;;;;;;29.73;12.82;;;;;;;-0.04;77.14;101092.81;3116384;28;20132;-68
2024/01/10 05:51:49;;;;;;;26.65;11.82;;;;;;;-0.04;77.01;101093.66;3116027;28;20527;-68
2024/01/10 05:53:20;;;;;;;33.33;12.70;;;;;;;0.01;77.04;101103.16;3116456;28;20063;-69
2024/01/10 05:54:53;;;;;;;25.65;11.68;;;;;;;-0.01;76.88;101103.97;3116498;28;20098;-69
2024/01/10 05:56:25;;;;;;;28.00;12.85;;;;;;;-0.06;77.22;101099.59;3115962;28;20065;-68
2024/01/10 05:57:56;;;;;;;39.78;17.92;;;;;;;-0.05;77.31;101102.19;3116460;28;20080;-68
2024/01/10 05:59:30;;;;;;;69.20;33.15;;;;;;;-0.05;77.40;101097.06;3116227;28;20073;-67
2024/01/10 06:01:01;;;;;;;55.47;24.83;;;;;;;-0.01;77.42;101109.09;3115835;28;20049;-67
2024/01/10 06:02:33;;;;;;;49.90;22.17;;;;;;;0.04;77.36;101114.31;3115919;28;20054;-66
2024/01/10 06:04:04;;;;;;;37.70;16.30;;;;;;;0.06;77.38;101115.22;3111031;28;20045;-71
2024/01/10 06:05:36;;;;;;;38.67;15.80;;;;;;;0.06;77.31;101115.22;3108336;28;20053;-72
2024/01/10 06:07:07;;;;;;;34.28;15.52;;;;;;;0.06;77.40;101115.22;3116258;28;20514;-72
2024/01/10 06:08:39;;;;;;;33.05;15.48;;;;;;;0.05;77.54;101117.72;3116528;28;20218;-70
2024/01/10 06:10:11;;;;;;;32.33;14.73;;;;;;;0.05;77.55;101117.72;3116299;28;20053;-73
2024/01/10 06:11:42;;;;;;;30.48;13.88;;;;;;;-0.04;77.46;101098.78;3116066;28;20054;-67
2024/01/10 06:13:13;;;;;;;34.15;14.65;;;;;;;0.01;77.56;101124.50;3116487;28;20093;-68
2024/01/10 06:14:46;;;;;;;36.92;14.32;;;;;;;-0.02;77.78;101125.28;3116307;28;20053;-67
2024/01/10 06:16:18;;;;;;;33.83;14.15;;;;;;;-0.08;77.86;101125.19;3116121;28;20481;-68
2024/01/10 06:17:49;;;;;;;32.80;14.00;;;;;;;-0.11;77.96;101132.81;3115143;28;20061;-66
2024/01/10 06:19:21;;;;;;;32.13;13.18;;;;;;;-0.12;78.04;101133.66;3114562;28;20092;-67
2024/01/10 06:20:52;;;;;;;34.58;13.88;;;;;;;-0.16;78.00;101128.41;3116188;28;20057;-68
2024/01/10 06:22:25;;;;;;;28.58;13.52;;;;;;;-0.16;78.25;101134.41;3116182;28;20057;-66
2024/01/10 06:23:56;;;;;;;30.10;13.90;;;;;;;-0.21;78.44;101142.81;3114668;28;20526;-68
2024/01/10 06:25:28;;;;;;;31.25;14.02;;;;;;;-0.25;78.55;101145.31;3106883;28;20315;-69
2024/01/10 06:26:59;;;;;;;33.17;15.15;;;;;;;-0.46;78.66;101117.59;3109723;28;20084;-67
2024/01/10 06:28:31;;;;;;;31.63;13.65;;;;;;;-0.28;78.80;101149.53;3115718;28;20131;-67
2024/01/10 06:30:12;;;;;;;37.90;15.23;;;;;;;-0.54;79.06;101108.88;3115765;28;20699;-66
2024/01/10 06:31:44;;;;;;;58.35;26.67;;;;;;;-0.30;79.10;101152.03;3113754;28;20894;-66
2024/01/10 06:33:15;;;;;;;116.25;46.78;;;;;;;-1.01;78.94;101041.38;3115419;28;20068;-66
2024/01/10 06:34:47;;;;;;;63.22;27.55;;;;;;;-0.22;79.10;101152.19;3115601;28;20057;-65
2024/01/10 06:36:18;;;;;;;38.60;17.70;;;;;;;-0.13;78.84;101164.31;3116076;28;20057;-67
2024/01/10 06:37:50;;;;;;;35.78;15.77;;;;;;;-0.11;78.98;101167.78;3115974;28;20057;-66
2024/01/10 06:39:21;;;;;;;37.35;16.90;;;;;;;-0.10;78.84;101166.94;3116010;28;20117;-66
2024/01/10 06:40:53;;;;;;;38.97;17.40;;;;;;;-0.10;78.90;101164.38;3115719;28;20088;-65
2024/01/10 06:42:27;;;;;;;39.85;16.85;;;;;;;-0.10;78.92;101172.94;3114784;28;20545;-67
2024/01/10 06:43:58;;;;;;;41.97;16.63;;;;;;;-0.11;78.99;101168.66;3108876;28;20053;-65
2024/01/10 06:45:31;;;;;;;41.30;17.52;;;;;;;-0.09;78.99;101176.34;3114709;28;20072;-65
2024/01/10 06:47:03;;;;;;;41.65;17.73;;;;;;;-0.09;79.16;101172.13;3115700;28;20484;-64
2024/01/10 06:48:35;;;;;;;49.47;16.92;;;;;;;-0.07;78.99;101175.56;3115695;28;20064;-68
2024/01/10 06:50:08;;;;;;;49.55;19.40;;;;;;;-0.05;79.04;101170.47;3115528;28;20141;-69
2024/01/10 06:51:39;;;;;;;54.45;19.75;;;;;;;-0.42;78.89;101113.38;3114935;28;20480;-70
2024/01/10 06:53:11;;;;;;;53.83;19.88;;;;;;;-0.03;79.08;101177.34;3114685;28;20049;-72
2024/01/10 06:54:42;;;;;;;51.97;21.30;;;;;;;-0.01;78.94;101179.94;3115702;28;20065;-70
2024/01/10 06:56:14;;;;;;;55.55;21.52;;;;;;;0.01;78.99;101178.28;3103707;28;20057;-69
2024/01/10 06:57:46;;;;;;;53.58;20.33;;;;;;;0.03;78.83;101176.63;3113929;28;20060;-69
2024/01/10 06:59:18;;;;;;;58.83;22.10;;;;;;;0.03;78.97;101180.84;3115527;28;20140;-69